Time;durP1;ratioP1;P1;durP2;ratioP2;P2;SDS_P1;SDS_P2;PMS_P1;PMS_P2;Temp;Humidity;BMP_temperature;BMP_pressure;BME280_temperature;BME280_humidity;BME280_pressure;Samples;Min_cycle;Max_cycle;Signal;HPM_P1;HPM_P2
2023/10/30 00:02:21;;;;;;;4.80;1.77;;;;;;;14.53;82.33;99847.19;5114397;28;20612;-68
2023/10/30 00:04:48;;;;;;;1.90;1.80;;;;;;;14.54;81.79;99846.28;5114214;28;20197;-67
2023/10/30 00:07:15;;;;;;;2.43;2.13;;;;;;;14.37;81.95;99835.78;5114368;28;20226;-68
2023/10/30 00:09:41;;;;;;;8.30;1.70;;;;;;;14.46;82.34;99853.50;5113941;28;20218;-68
2023/10/30 00:12:08;;;;;;;1.43;1.43;;;;;;;14.46;82.11;99852.66;5113639;28;20214;-68
2023/10/30 00:14:35;;;;;;;1.87;1.17;;;;;;;14.43;82.18;99853.63;5114191;28;20670;-68
2023/10/30 00:17:03;;;;;;;1.53;1.53;;;;;;;14.40;82.37;99848.56;5113929;28;20191;-68
2023/10/30 00:19:30;;;;;;;1.30;1.30;;;;;;;14.40;82.19;99858.88;5114060;27;20638;-68
2023/10/30 00:21:56;;;;;;;1.63;1.07;;;;;;;14.39;82.23;99841.72;5114019;27;20195;-67
2023/10/30 00:24:23;;;;;;;3.13;1.50;;;;;;;14.36;82.46;99847.00;5113846;28;20248;-68
2023/10/30 00:26:50;;;;;;;5.10;1.63;;;;;;;14.32;82.16;99844.56;5113507;27;20285;-68
2023/10/30 00:29:17;;;;;;;1.30;1.30;;;;;;;14.23;82.16;99843.19;5113832;28;20205;-68
2023/10/30 00:31:43;;;;;;;1.67;1.67;;;;;;;14.20;82.04;99843.28;5113657;28;20207;-68
2023/10/30 00:34:12;;;;;;;2.50;1.20;;;;;;;14.19;82.28;99845.03;5113466;27;20190;-68
2023/10/30 00:36:39;;;;;;;0.90;0.90;;;;;;;14.15;82.63;99847.78;5113722;28;20627;-68
2023/10/30 00:39:05;;;;;;;0.90;0.90;;;;;;;14.14;82.84;99846.09;5112796;28;20203;-68
2023/10/30 00:41:32;;;;;;;0.80;0.80;;;;;;;14.09;82.80;99848.00;5111960;28;20559;-68
2023/10/30 00:43:59;;;;;;;1.30;1.30;;;;;;;14.07;82.91;99855.81;5112839;28;20673;-68
2023/10/30 00:46:26;;;;;;;1.57;1.40;;;;;;;14.05;82.67;99859.34;5112968;28;20247;-68
2023/10/30 00:48:52;;;;;;;0.90;0.90;;;;;;;14.03;82.59;99854.22;5113479;28;20198;-68
2023/10/30 00:51:20;;;;;;;1.27;1.27;;;;;;;14.01;82.98;99856.03;5114467;27;20205;-68
2023/10/30 00:53:47;;;;;;;0.90;0.90;;;;;;;13.99;82.95;99859.56;5113328;28;20214;-68
2023/10/30 00:56:14;;;;;;;1.17;1.17;;;;;;;13.98;83.22;99860.47;5112849;28;20202;-67
2023/10/30 00:58:41;;;;;;;1.23;1.10;;;;;;;13.96;82.80;99852.78;5112970;28;20250;-68
2023/10/30 01:01:09;;;;;;;1.13;0.90;;;;;;;13.93;82.94;99862.34;5113334;28;20628;-68
2023/10/30 01:03:37;;;;;;;1.10;1.10;;;;;;;13.90;83.24;99859.88;5113223;28;20190;-68
2023/10/30 01:06:04;;;;;;;0.90;0.90;;;;;;;13.86;83.52;99861.72;5112868;28;20228;-68
2023/10/30 01:08:32;;;;;;;0.90;0.90;;;;;;;13.83;83.93;99856.69;5113432;28;20197;-68
2023/10/30 01:10:59;;;;;;;0.90;0.90;;;;;;;13.81;84.04;99857.66;5112875;28;20270;-68
2023/10/30 01:13:26;;;;;;;0.93;0.93;;;;;;;13.80;83.83;99855.94;5112829;28;20259;-68
2023/10/30 01:15:53;;;;;;;1.00;1.00;;;;;;;13.80;83.77;99853.38;5113072;28;20254;-68
2023/10/30 01:18:20;;;;;;;0.90;0.90;;;;;;;13.77;83.93;99853.50;5112309;28;20226;-67
2023/10/30 01:20:47;;;;;;;0.93;0.93;;;;;;;13.76;83.79;99859.56;5113552;27;20666;-68
2023/10/30 01:23:14;;;;;;;0.90;0.90;;;;;;;13.75;83.96;99847.56;5112474;27;20645;-68
2023/10/30 01:25:42;;;;;;;0.80;0.80;;;;;;;13.76;83.93;99854.41;5112863;28;20624;-67
2023/10/30 01:28:09;;;;;;;1.00;1.00;;;;;;;13.73;84.08;99852.78;5112722;28;20628;-68
2023/10/30 01:30:35;;;;;;;1.87;1.77;;;;;;;13.72;83.84;99847.66;5112757;28;21956;-67
2023/10/30 01:33:02;;;;;;;1.10;1.10;;;;;;;13.69;84.09;99853.78;5112170;28;20275;-68
2023/10/30 01:35:29;;;;;;;0.80;0.80;;;;;;;13.68;84.06;99860.66;5112268;28;20202;-67
2023/10/30 01:37:56;;;;;;;1.13;1.13;;;;;;;13.67;84.29;99856.41;5112407;28;20620;-68
2023/10/30 01:40:23;;;;;;;1.20;1.20;;;;;;;13.63;84.01;99861.72;5112322;28;20316;-68
2023/10/30 01:42:51;;;;;;;1.47;1.47;;;;;;;13.59;84.41;99866.16;5112006;27;20191;-68
2023/10/30 01:45:17;;;;;;;0.80;0.80;;;;;;;13.58;84.38;99864.47;5112405;28;20249;-68
2023/10/30 01:47:44;;;;;;;1.20;1.13;;;;;;;13.55;84.55;99856.84;5112298;28;20267;-68
2023/10/30 01:50:14;;;;;;;1.37;1.37;;;;;;;13.52;84.47;99866.41;5113074;27;20199;-68
2023/10/30 01:52:41;;;;;;;0.90;0.90;;;;;;;13.50;84.73;99866.47;5111728;28;20219;-68
2023/10/30 01:55:09;;;;;;;1.60;0.97;;;;;;;13.47;85.05;99869.13;5112278;28;20287;-68
2023/10/30 01:57:36;;;;;;;1.20;1.20;;;;;;;13.36;85.40;99866.09;5111948;28;20271;-68
2023/10/30 02:00:05;;;;;;;8.23;2.07;;;;;;;13.27;85.88;99858.69;5112212;28;20194;-68
2023/10/30 02:02:34;;;;;;;7.63;1.30;;;;;;;13.08;86.95;99849.88;5111637;28;20259;-68
2023/10/30 02:05:01;;;;;;;0.70;0.70;;;;;;;13.10;87.59;99858.41;5112015;28;20214;-67
2023/10/30 02:07:27;;;;;;;1.20;1.20;;;;;;;13.08;87.77;99858.47;5111712;28;20207;-68
2023/10/30 02:09:55;;;;;;;1.40;1.40;;;;;;;13.10;87.93;99863.53;5111787;28;20222;-68
2023/10/30 02:12:21;;;;;;;1.30;0.97;;;;;;;13.10;87.98;99863.53;5111483;28;20207;-68
2023/10/30 02:14:48;;;;;;;0.87;0.87;;;;;;;13.11;88.01;99862.66;5111460;28;20245;-68
2023/10/30 02:17:16;;;;;;;0.90;0.90;;;;;;;13.11;88.14;99860.09;5111531;28;20190;-68
2023/10/30 02:19:43;;;;;;;1.77;1.43;;;;;;;13.11;88.54;99866.09;5111413;28;20190;-68
2023/10/30 02:22:10;;;;;;;1.17;1.17;;;;;;;13.12;88.28;99867.75;5111781;27;20195;-67
2023/10/30 02:24:36;;;;;;;1.10;1.00;;;;;;;13.16;88.17;99868.50;5111651;28;20195;-68
2023/10/30 02:27:05;;;;;;;1.23;1.23;;;;;;;13.15;88.12;99866.78;5109760;28;20202;-67
2023/10/30 02:29:32;;;;;;;2.67;1.97;;;;;;;13.12;88.13;99861.75;5111529;28;20574;-68
2023/10/30 02:31:58;;;;;;;1.23;1.23;;;;;;;13.10;88.44;99876.41;5111283;28;20209;-67
2023/10/30 02:34:25;;;;;;;1.20;1.10;;;;;;;13.10;88.30;99876.41;5111530;28;20260;-68
2023/10/30 02:36:53;;;;;;;3.20;1.30;;;;;;;13.09;88.16;99872.16;5111511;28;20582;-68
2023/10/30 02:39:19;;;;;;;1.10;1.10;;;;;;;13.09;88.05;99872.16;5111284;28;20272;-68
2023/10/30 02:41:46;;;;;;;1.30;1.30;;;;;;;13.07;87.91;99871.34;5111069;28;20198;-68
2023/10/30 02:44:14;;;;;;;6.03;1.20;;;;;;;13.07;88.16;99871.34;5111829;27;20252;-67
2023/10/30 02:46:41;;;;;;;5.57;1.07;;;;;;;13.07;88.11;99879.06;5111183;28;20205;-67
2023/10/30 02:49:08;;;;;;;1.23;1.13;;;;;;;13.07;88.07;99879.91;5110362;28;20230;-68
2023/10/30 02:51:35;;;;;;;0.80;0.80;;;;;;;13.08;88.27;99883.31;5111248;28;20623;-68
2023/10/30 02:54:01;;;;;;;1.00;1.00;;;;;;;13.06;87.97;99872.22;5111124;28;20210;-68
2023/10/30 02:56:28;;;;;;;0.70;0.70;;;;;;;13.05;88.18;99870.56;5110982;28;20202;-68
2023/10/30 02:58:55;;;;;;;10.10;1.50;;;;;;;13.05;88.11;99875.72;5111332;28;20624;-67
2023/10/30 03:01:23;;;;;;;1.47;1.37;;;;;;;13.04;88.45;99879.16;5111161;28;20194;-67
2023/10/30 03:03:50;;;;;;;1.43;1.43;;;;;;;13.02;88.51;99875.81;5111155;28;20552;-68
2023/10/30 03:06:17;;;;;;;5.53;1.17;;;;;;;13.01;88.55;99879.25;5110665;28;20202;-68
2023/10/30 03:08:44;;;;;;;1.30;1.30;;;;;;;13.00;88.15;99877.56;5110496;28;20624;-67
2023/10/30 03:11:10;;;;;;;0.80;0.80;;;;;;;12.95;88.55;99879.47;5110834;28;20203;-68
2023/10/30 03:13:37;;;;;;;0.93;0.93;;;;;;;12.91;88.52;99877.88;5110984;28;20263;-68
2023/10/30 03:16:04;;;;;;;1.40;1.13;;;;;;;12.84;89.41;99877.22;5111671;28;20620;-68
2023/10/30 03:18:33;;;;;;;0.87;0.87;;;;;;;12.77;89.68;99875.72;5110463;28;20252;-68
2023/10/30 03:21:00;;;;;;;1.60;1.53;;;;;;;12.72;90.10;99882.75;5110779;28;20233;-68
2023/10/30 03:23:26;;;;;;;0.90;0.90;;;;;;;12.68;90.43;99880.31;5109450;28;20616;-68
2023/10/30 03:25:54;;;;;;;1.10;1.10;;;;;;;12.67;90.93;99876.06;5110897;28;20206;-68
2023/10/30 03:28:21;;;;;;;0.90;0.90;;;;;;;12.65;90.92;99876.13;5110728;28;20247;-68
2023/10/30 03:30:47;;;;;;;0.70;0.70;;;;;;;12.63;91.03;99878.72;5110593;28;20314;-67
2023/10/30 03:33:14;;;;;;;1.07;1.07;;;;;;;12.59;92.00;99882.31;5110317;28;20206;-68
2023/10/30 03:35:42;;;;;;;0.87;0.80;;;;;;;12.57;91.98;99884.06;5110723;28;20199;-68
2023/10/30 03:38:09;;;;;;;1.47;1.37;;;;;;;12.56;91.88;99881.56;5110727;28;20254;-68
2023/10/30 03:40:36;;;;;;;1.00;1.00;;;;;;;12.54;92.12;99884.16;5110074;28;20206;-68
2023/10/30 03:43:03;;;;;;;2.87;0.90;;;;;;;12.46;92.15;99867.28;5110743;28;20187;-68
2023/10/30 03:45:29;;;;;;;1.03;0.90;;;;;;;12.53;92.16;99887.63;5111570;28;20635;-68
2023/10/30 03:47:56;;;;;;;1.10;1.10;;;;;;;12.52;91.89;99885.09;5108334;28;20195;-67
2023/10/30 03:50:23;;;;;;;0.97;0.97;;;;;;;12.44;92.34;99887.88;5110254;28;20195;-68
2023/10/30 03:52:51;;;;;;;4.03;0.93;;;;;;;12.38;92.37;99889.78;5110057;28;20202;-68
2023/10/30 03:55:18;;;;;;;0.97;0.97;;;;;;;12.30;92.72;99884.91;5108255;28;20234;-68
2023/10/30 03:57:45;;;;;;;0.87;0.87;;;;;;;12.27;92.80;99891.88;5110487;28;20211;-68
2023/10/30 04:00:13;;;;;;;0.63;0.63;;;;;;;12.24;93.25;99894.53;5110621;28;20243;-67
2023/10/30 04:02:40;;;;;;;0.87;0.87;;;;;;;12.21;93.03;99892.03;5108971;28;20273;-68
2023/10/30 04:05:07;;;;;;;1.60;1.50;;;;;;;12.25;92.79;99886.75;5109209;28;20206;-67
2023/10/30 04:07:34;;;;;;;1.00;1.00;;;;;;;12.25;93.37;99883.34;5110250;28;20265;-68
2023/10/30 04:10:02;;;;;;;0.87;0.87;;;;;;;12.26;93.70;99880.72;5110131;28;20655;-67
2023/10/30 04:12:29;;;;;;;0.77;0.77;;;;;;;12.26;93.53;99878.16;5110637;28;20627;-68
2023/10/30 04:14:55;;;;;;;0.83;0.83;;;;;;;12.30;93.49;99879.75;5109728;28;20215;-68
2023/10/30 04:17:23;;;;;;;0.70;0.70;;;;;;;12.31;94.06;99886.56;5110095;28;20735;-68
2023/10/30 04:19:49;;;;;;;0.80;0.80;;;;;;;12.34;94.35;99886.47;5111161;28;20199;-68
2023/10/30 04:22:16;;;;;;;1.10;1.10;;;;;;;12.36;94.31;99889.00;5112781;28;20195;-67
2023/10/30 04:24:43;;;;;;;0.90;0.90;;;;;;;12.34;95.08;99880.50;5113908;28;20728;-68
2023/10/30 04:27:11;;;;;;;1.43;1.37;;;;;;;12.29;94.94;99883.22;5113384;28;20199;-67
2023/10/30 04:29:38;;;;;;;1.00;1.00;;;;;;;12.28;95.04;99885.84;5113920;28;20297;-67
2023/10/30 04:32:05;;;;;;;0.90;0.90;;;;;;;12.31;94.68;99896.03;5113163;28;20199;-68
2023/10/30 04:34:32;;;;;;;0.60;0.60;;;;;;;12.23;94.23;99878.25;5112969;28;20717;-68
2023/10/30 04:36:58;;;;;;;1.07;1.07;;;;;;;12.30;94.48;99884.91;5110785;27;20199;-68
2023/10/30 04:39:25;;;;;;;0.93;0.93;;;;;;;12.30;94.31;99890.03;5112998;28;20914;-68
2023/10/30 04:41:53;;;;;;;0.90;0.90;;;;;;;12.19;94.25;99881.78;5112819;27;20195;-67
2023/10/30 04:44:21;;;;;;;2.13;0.83;;;;;;;12.28;94.74;99899.50;5113233;28;20225;-68
2023/10/30 04:46:48;;;;;;;1.53;1.43;;;;;;;12.29;94.43;99893.50;5113857;27;20743;-67
2023/10/30 04:49:16;;;;;;;1.37;1.37;;;;;;;12.31;94.31;99896.84;5113329;28;20212;-68
2023/10/30 04:51:42;;;;;;;2.20;1.13;;;;;;;12.34;94.33;99895.94;5113252;28;20578;-68
2023/10/30 04:54:09;;;;;;;1.03;1.03;;;;;;;12.35;93.94;99900.19;5113325;28;20271;-68
2023/10/30 04:56:36;;;;;;;0.63;0.63;;;;;;;12.36;93.86;99899.31;5113002;28;20204;-68
2023/10/30 04:59:02;;;;;;;1.33;1.33;;;;;;;12.35;93.96;99898.44;5112159;28;20198;-68
2023/10/30 05:01:31;;;;;;;0.90;0.90;;;;;;;12.37;94.38;99891.56;5112670;28;20247;-68
2023/10/30 05:03:58;;;;;;;3.47;1.40;;;;;;;12.40;93.84;99894.03;5113194;28;20224;-68
2023/10/30 05:06:25;;;;;;;1.33;1.27;;;;;;;12.39;93.94;99894.91;5112813;28;20191;-68
2023/10/30 05:08:51;;;;;;;0.90;0.90;;;;;;;12.36;94.11;99900.16;5112728;28;20265;-68
2023/10/30 05:11:18;;;;;;;0.60;0.60;;;;;;;12.34;93.90;99907.03;5113365;27;20199;-68
2023/10/30 05:13:45;;;;;;;0.93;0.70;;;;;;;12.31;94.58;99902.00;5112475;28;20211;-68
2023/10/30 05:16:11;;;;;;;0.80;0.80;;;;;;;12.34;94.85;99907.03;5112550;28;20237;-68
2023/10/30 05:18:39;;;;;;;1.00;1.00;;;;;;;12.32;94.27;99898.53;5112499;28;20248;-67
2023/10/30 05:21:06;;;;;;;0.87;0.87;;;;;;;12.34;94.72;99906.22;5112710;28;20207;-67
2023/10/30 05:23:33;;;;;;;1.10;1.10;;;;;;;12.35;94.48;99913.88;5112687;28;20252;-68
2023/10/30 05:26:00;;;;;;;5.20;1.00;;;;;;;12.37;94.52;99912.13;5112940;27;20195;-67
2023/10/30 05:28:26;;;;;;;3.83;1.47;;;;;;;12.38;94.68;99916.34;5112033;28;20651;-68
2023/10/30 05:30:53;;;;;;;0.80;0.80;;;;;;;12.35;94.80;99913.03;5111753;28;20198;-68
2023/10/30 05:33:20;;;;;;;1.53;1.50;;;;;;;12.33;94.89;99915.66;5112105;28;20240;-68
2023/10/30 05:35:52;;;;;;;0.93;0.93;;;;;;;12.35;95.56;99913.88;5112429;27;20666;-67
2023/10/30 05:38:19;;;;;;;1.40;1.30;;;;;;;12.34;96.38;99919.91;5112568;28;20198;-68
2023/10/30 05:40:46;;;;;;;0.87;0.87;;;;;;;12.26;96.29;99914.16;5112343;28;20202;-68
2023/10/30 05:43:13;;;;;;;5.20;1.17;;;;;;;12.22;96.94;99916.84;5111336;28;20205;-68
2023/10/30 05:45:40;;;;;;;1.07;1.03;;;;;;;12.19;97.83;99919.50;5112625;28;20194;-68
2023/10/30 05:48:07;;;;;;;1.20;1.20;;;;;;;12.18;98.10;99923.78;5111688;27;20206;-68
2023/10/30 05:50:34;;;;;;;1.47;1.47;;;;;;;12.15;98.73;99926.44;5106154;28;20215;-69
2023/10/30 05:53:02;;;;;;;1.20;1.20;;;;;;;12.16;99.20;99930.72;5109837;28;20195;-67
2023/10/30 05:55:28;;;;;;;1.13;1.13;;;;;;;12.17;99.46;99929.00;5109598;28;20214;-68
2023/10/30 05:57:55;;;;;;;1.20;1.20;;;;;;;12.21;100.00;99931.44;5110175;28;20267;-69
2023/10/30 06:00:22;;;;;;;0.83;0.83;;;;;;;12.28;100.00;99938.06;5110511;28;20615;-68
2023/10/30 06:02:49;;;;;;;3.45;1.80;;;;;;;12.38;100.00;99944.63;5108539;28;20821;-66
2023/10/30 06:05:16;;;;;;;1.30;1.30;;;;;;;12.50;100.00;99939.13;5108659;28;20194;-65
2023/10/30 06:07:43;;;;;;;1.50;1.50;;;;;;;12.58;100.00;99942.34;5106871;27;20263;-66
2023/10/30 06:10:11;;;;;;;5.87;1.20;;;;;;;12.61;100.00;99947.38;5109979;28;20284;-65
2023/10/30 06:12:38;;;;;;;1.90;1.30;;;;;;;12.68;100.00;99947.19;5106643;28;20526;-70
2023/10/30 06:15:09;;;;;;;0.83;0.83;;;;;;;12.71;100.00;99954.81;5107776;28;21046;-72
2023/10/30 06:17:36;;;;;;;3.70;1.80;;;;;;;12.81;100.00;99957.09;5109728;27;20464;-66
2023/10/30 06:20:03;;;;;;;1.30;1.30;;;;;;;12.97;100.00;99960.88;5110275;27;20643;-66
2023/10/30 06:22:30;;;;;;;1.07;1.07;;;;;;;13.06;100.00;99949.44;5107599;27;20512;-66
2023/10/30 06:24:58;;;;;;;1.10;1.10;;;;;;;13.08;100.00;99950.25;5109547;27;20264;-67
2023/10/30 06:27:26;;;;;;;2.50;1.07;;;;;;;13.11;100.00;99950.19;5109025;27;20213;-65
2023/10/30 06:29:53;;;;;;;1.33;1.20;;;;;;;13.18;100.00;99948.25;5109580;28;20244;-67
2023/10/30 06:32:20;;;;;;;1.07;1.07;;;;;;;13.25;100.00;99949.75;5109132;28;20249;-68
2023/10/30 06:34:47;;;;;;;2.80;0.93;;;;;;;13.27;100.00;99943.66;5109373;28;20215;-70
2023/10/30 06:37:14;;;;;;;1.40;1.10;;;;;;;13.25;100.00;99950.56;5109247;28;20251;-62
2023/10/30 06:39:41;;;;;;;7.30;1.10;;;;;;;13.35;100.00;99948.53;5111716;28;20204;-67
2023/10/30 06:42:08;;;;;;;1.73;1.63;;;;;;;13.43;100.00;99950.00;5108969;28;20204;-68
2023/10/30 06:44:36;;;;;;;0.90;0.90;;;;;;;13.47;100.00;99951.53;5110140;28;20689;-67
2023/10/30 06:47:03;;;;;;;1.00;1.00;;;;;;;13.54;100.00;99947.88;5109110;28;20250;-68
2023/10/30 06:49:29;;;;;;;1.13;1.13;;;;;;;13.60;100.00;99941.69;5107563;28;20658;-69
2023/10/30 06:51:56;;;;;;;0.97;0.90;;;;;;;13.67;100.00;99944.00;5109799;28;20198;-67
2023/10/30 06:54:23;;;;;;;0.77;0.77;;;;;;;13.71;100.00;99943.88;5109961;28;20225;-68
2023/10/30 06:56:49;;;;;;;1.00;0.97;;;;;;;13.80;100.00;99935.84;5110416;28;20644;-68
2023/10/30 06:59:16;;;;;;;1.50;1.40;;;;;;;13.93;100.00;99940.53;5110671;28;20202;-68
2023/10/30 07:01:45;;;;;;;1.57;1.57;;;;;;;14.04;100.00;99937.56;5110624;28;20197;-67
2023/10/30 07:04:12;;;;;;;1.63;0.87;;;;;;;14.08;100.00;99941.72;5110372;28;20206;-67
2023/10/30 07:06:39;;;;;;;3.07;1.17;;;;;;;14.10;100.00;99938.19;5110660;28;20229;-67
2023/10/30 07:09:06;;;;;;;1.53;1.53;;;;;;;14.20;100.00;99943.84;5109738;28;20248;-67
2023/10/30 07:11:33;;;;;;;6.50;1.27;;;;;;;14.34;100.00;99941.66;5109621;28;20201;-68
2023/10/30 07:14:02;;;;;;;0.70;0.70;;;;;;;14.49;100.00;99941.09;5110480;28;20210;-67
2023/10/30 07:16:29;;;;;;;6.70;1.10;;;;;;;14.61;100.00;99945.78;5110546;28;20222;-67
2023/10/30 07:18:57;;;;;;;1.10;1.10;;;;;;;14.86;100.00;99944.84;5110107;28;20198;-67
2023/10/30 07:21:24;;;;;;;1.43;1.33;;;;;;;14.98;99.96;99949.53;5110596;28;20201;-68
2023/10/30 07:23:51;;;;;;;1.13;1.13;;;;;;;15.15;99.26;99944.53;5110037;28;20629;-67
2023/10/30 07:26:18;;;;;;;1.20;1.20;;;;;;;15.36;98.19;99938.50;5110690;28;20252;-67
2023/10/30 07:28:45;;;;;;;1.00;1.00;;;;;;;15.54;97.93;99940.34;5110518;28;20198;-68
2023/10/30 07:31:12;;;;;;;2.97;0.97;;;;;;;15.77;96.64;99935.97;5110427;28;20629;-67
2023/10/30 07:33:39;;;;;;;1.23;1.23;;;;;;;16.00;95.36;99944.41;5110204;28;20195;-68
2023/10/30 07:36:08;;;;;;;1.20;1.20;;;;;;;16.23;93.74;99940.78;5109442;28;20291;-67
2023/10/30 07:38:35;;;;;;;1.10;1.10;;;;;;;16.47;92.63;99950.06;5108476;28;20288;-68
2023/10/30 07:41:02;;;;;;;1.23;1.23;;;;;;;16.78;91.93;99936.56;5109297;28;20734;-68
2023/10/30 07:43:29;;;;;;;0.90;0.90;;;;;;;17.02;90.30;99942.34;5109535;28;20203;-67
2023/10/30 07:45:56;;;;;;;1.10;1.10;;;;;;;17.19;89.31;99934.56;5110475;28;20194;-68
2023/10/30 07:48:23;;;;;;;1.60;1.43;;;;;;;17.35;88.86;99919.94;5109174;28;20210;-68
2023/10/30 07:50:50;;;;;;;0.73;0.73;;;;;;;17.61;86.79;99929.88;5110898;28;20268;-68
2023/10/30 07:53:18;;;;;;;1.00;1.00;;;;;;;17.93;86.42;99935.22;5110432;28;20263;-68
2023/10/30 07:55:47;;;;;;;1.17;1.17;;;;;;;18.13;85.74;99929.81;5115952;27;20287;-68
2023/10/30 07:58:14;;;;;;;0.90;0.90;;;;;;;18.31;84.56;99923.66;5114075;28;20295;-67
2023/10/30 08:00:41;;;;;;;1.20;1.17;;;;;;;18.56;82.99;99929.22;5113914;27;20196;-68
2023/10/30 08:03:08;;;;;;;0.90;0.90;;;;;;;18.76;82.78;99931.56;5114211;27;20205;-68
2023/10/30 08:05:34;;;;;;;1.17;1.17;;;;;;;18.96;81.27;99932.22;5113290;27;20270;-68
2023/10/30 08:08:01;;;;;;;1.00;1.00;;;;;;;19.14;80.98;99926.00;5111792;27;20206;-68
2023/10/30 08:10:30;;;;;;;0.80;0.80;;;;;;;19.32;79.72;99930.16;5112503;28;20238;-68
2023/10/30 08:12:56;;;;;;;0.90;0.90;;;;;;;19.48;78.88;99928.38;5112748;27;20256;-68
2023/10/30 08:15:23;;;;;;;1.30;1.20;;;;;;;19.64;77.74;99923.09;5111031;27;20230;-67
2023/10/30 08:17:50;;;;;;;0.90;0.90;;;;;;;19.80;76.76;99921.28;5113101;27;20727;-68
2023/10/30 08:20:17;;;;;;;0.90;0.90;;;;;;;19.93;75.69;99922.22;5112254;28;20439;-70
2023/10/30 08:22:43;;;;;;;1.27;1.27;;;;;;;20.13;75.05;99918.41;5109164;27;20377;-72
2023/10/30 08:25:10;;;;;;;0.77;0.77;;;;;;;20.19;74.78;99918.03;5110156;28;20247;-74
2023/10/30 08:27:39;;;;;;;0.87;0.87;;;;;;;20.28;73.69;99925.31;5109046;28;20210;-77
2023/10/30 08:30:07;;;;;;;1.00;1.00;;;;;;;20.39;72.45;99925.47;5109221;27;20195;-77
2023/10/30 08:32:34;;;;;;;0.77;0.77;;;;;;;20.48;71.45;99913.66;5105204;28;20214;-76
2023/10/30 08:35:02;;;;;;;1.20;1.10;;;;;;;20.52;71.65;99918.56;5103115;28;20219;-77
2023/10/30 08:37:29;;;;;;;0.70;0.70;;;;;;;20.56;70.86;99922.66;5114285;27;20708;-76
2023/10/30 08:39:56;;;;;;;0.80;0.80;;;;;;;20.61;71.06;99928.41;5112727;27;20293;-76
2023/10/30 08:42:23;;;;;;;0.80;0.80;;;;;;;20.67;69.53;99922.81;5113540;27;20256;-77
2023/10/30 08:44:51;;;;;;;0.87;0.87;;;;;;;20.75;69.79;99915.34;5113044;27;20190;-76
2023/10/30 08:47:17;;;;;;;0.93;0.90;;;;;;;20.85;70.86;99912.97;5111932;27;20882;-69
2023/10/30 08:49:44;;;;;;;0.77;0.77;;;;;;;21.03;71.22;99910.97;5112515;27;20202;-68
2023/10/30 08:52:11;;;;;;;0.77;0.77;;;;;;;21.07;67.11;99917.63;5114417;27;20198;-68
2023/10/30 08:54:38;;;;;;;0.70;0.70;;;;;;;21.16;67.46;99906.66;5110805;28;20666;-67
2023/10/30 08:57:05;;;;;;;0.80;0.80;;;;;;;21.32;67.23;99912.53;5112652;27;20263;-68
2023/10/30 08:59:31;;;;;;;0.63;0.63;;;;;;;21.31;65.96;99905.66;5112491;28;20206;-68
2023/10/30 09:01:59;;;;;;;1.63;1.10;;;;;;;21.28;66.66;99911.91;5112808;27;20502;-68
2023/10/30 09:04:26;;;;;;;1.47;1.37;;;;;;;21.35;66.70;99896.69;5113021;28;20199;-68
2023/10/30 09:06:53;;;;;;;0.50;0.50;;;;;;;21.52;65.97;99896.38;5111691;28;20236;-68
2023/10/30 09:09:19;;;;;;;0.80;0.80;;;;;;;21.67;66.20;99903.19;5112463;28;20218;-68
2023/10/30 09:11:46;;;;;;;0.57;0.57;;;;;;;21.87;65.36;99896.63;5113270;28;20673;-68
2023/10/30 09:14:13;;;;;;;0.97;0.90;;;;;;;21.94;64.21;99890.88;5113476;27;20195;-68
2023/10/30 09:16:40;;;;;;;1.00;1.00;;;;;;;21.95;63.28;99892.56;5113082;28;20260;-68
2023/10/30 09:19:08;;;;;;;0.73;0.73;;;;;;;22.07;62.96;99892.66;5113100;28;20199;-68
2023/10/30 09:21:35;;;;;;;0.80;0.80;;;;;;;22.14;63.21;99893.88;5113403;28;20266;-68
2023/10/30 09:24:02;;;;;;;0.90;0.90;;;;;;;22.35;64.16;99884.56;5113028;27;20194;-68
2023/10/30 09:26:29;;;;;;;1.80;1.00;;;;;;;22.43;62.86;99887.44;5113255;28;20261;-69
2023/10/30 09:28:56;;;;;;;2.30;0.80;;;;;;;22.48;61.94;99880.97;5112712;28;20195;-68
2023/10/30 09:31:23;;;;;;;0.87;0.87;;;;;;;22.54;62.37;99884.91;5112915;28;20195;-69
2023/10/30 09:33:49;;;;;;;1.03;1.03;;;;;;;22.44;62.19;99878.66;5113160;27;20198;-69
2023/10/30 09:36:17;;;;;;;0.87;0.87;;;;;;;22.28;62.37;99872.88;5112575;28;20267;-68
2023/10/30 09:38:44;;;;;;;1.03;0.97;;;;;;;22.43;63.13;99866.53;5112731;28;20256;-68
2023/10/30 09:41:13;;;;;;;0.83;0.83;;;;;;;22.55;61.76;99863.06;5112675;28;20196;-68
2023/10/30 09:43:40;;;;;;;0.73;0.73;;;;;;;22.70;61.36;99864.59;5112867;27;20195;-69
2023/10/30 09:46:07;;;;;;;0.70;0.70;;;;;;;22.80;60.15;99855.16;5113992;27;20199;-68
2023/10/30 09:48:37;;;;;;;2.80;0.90;;;;;;;22.81;59.55;99862.00;5112568;28;20230;-68
2023/10/30 09:51:07;;;;;;;0.67;0.67;;;;;;;22.93;59.71;99849.84;5112552;28;20662;-68
2023/10/30 09:53:37;;;;;;;0.70;0.70;;;;;;;23.04;59.40;99846.44;5112490;28;20210;-69
2023/10/30 09:56:07;;;;;;;1.03;1.03;;;;;;;23.02;59.79;99844.75;5114346;27;20210;-68
2023/10/30 09:58:34;;;;;;;0.87;0.87;;;;;;;23.04;59.43;99841.22;5112379;28;20616;-68
2023/10/30 10:01:01;;;;;;;1.10;1.07;;;;;;;23.04;59.83;99828.94;5112611;28;20203;-69
2023/10/30 10:03:27;;;;;;;1.07;0.60;;;;;;;23.20;58.54;99837.31;5112332;28;20268;-69
2023/10/30 10:05:56;;;;;;;0.70;0.70;;;;;;;23.27;58.35;99832.44;5112508;28;20195;-69
2023/10/30 10:08:23;;;;;;;0.60;0.60;;;;;;;23.34;58.73;99825.81;5112710;28;20289;-68
2023/10/30 10:11:01;;;;;;;0.80;0.80;;;;;;;23.35;58.79;99827.47;5111940;28;20609;-69
2023/10/30 10:13:31;;;;;;;2.93;0.83;;;;;;;23.44;57.07;99829.44;5112424;28;21963;-68
2023/10/30 10:15:58;;;;;;;2.40;0.53;;;;;;;23.51;58.79;99826.25;5111407;27;20670;-69
2023/10/30 10:18:27;;;;;;;0.60;0.60;;;;;;;23.58;59.66;99815.28;5110994;28;20205;-68
2023/10/30 10:20:59;;;;;;;1.00;1.00;;;;;;;23.61;58.47;99815.06;5111844;28;20199;-69
2023/10/30 10:23:26;;;;;;;0.93;0.93;;;;;;;23.65;57.24;99821.72;5111910;28;20195;-69
2023/10/30 10:25:54;;;;;;;0.65;0.65;;;;;;;23.63;59.03;99811.34;5110569;27;20863;-69
2023/10/30 10:28:23;;;;;;;2.13;0.80;;;;;;;23.82;58.28;99808.97;5112189;28;20198;-69
2023/10/30 10:30:51;;;;;;;0.83;0.83;;;;;;;23.89;57.67;99799.69;5112328;28;20252;-69
2023/10/30 10:33:20;;;;;;;1.33;1.00;;;;;;;23.95;57.92;99801.81;5112301;28;20256;-69
2023/10/30 10:35:49;;;;;;;1.10;1.00;;;;;;;24.03;57.00;99803.84;5110909;28;20238;-69
2023/10/30 10:38:18;;;;;;;5.50;0.87;;;;;;;24.10;57.42;99807.66;5108053;28;20195;-69
2023/10/30 10:40:47;;;;;;;0.83;0.83;;;;;;;24.14;57.40;99792.53;5111694;28;20205;-69
2023/10/30 10:43:15;;;;;;;0.80;0.73;;;;;;;24.21;58.28;99797.16;5111641;28;20222;-70
2023/10/30 10:45:46;;;;;;;2.43;0.80;;;;;;;24.33;56.88;99792.75;5111513;28;20244;-70
2023/10/30 10:48:13;;;;;;;1.07;0.90;;;;;;;24.37;56.93;99794.97;5113608;27;20194;-70
2023/10/30 10:50:40;;;;;;;0.80;0.80;;;;;;;24.41;57.38;99785.09;5111979;28;20198;-69
2023/10/30 10:53:09;;;;;;;3.33;0.73;;;;;;;24.47;58.26;99779.34;5111555;28;20230;-70
2023/10/30 10:55:42;;;;;;;1.27;1.27;;;;;;;24.55;57.14;99774.31;5111289;28;20210;-69
2023/10/30 10:58:10;;;;;;;0.93;0.93;;;;;;;24.56;56.77;99763.69;5111872;28;20203;-70
2023/10/30 11:00:41;;;;;;;2.43;1.57;;;;;;;24.67;56.81;99767.22;5111614;28;20198;-69
2023/10/30 11:03:10;;;;;;;1.20;1.20;;;;;;;24.68;56.86;99766.28;5111245;28;20618;-70
2023/10/30 11:05:38;;;;;;;2.03;1.30;;;;;;;24.67;56.40;99759.34;5111544;28;20279;-70
2023/10/30 11:08:21;;;;;;;0.70;0.70;;;;;;;24.53;56.21;99750.00;5110757;28;20624;-69
2023/10/30 11:10:52;;;;;;;2.70;0.87;;;;;;;24.54;56.29;99749.88;5111373;28;20238;-68
2023/10/30 11:13:26;;;;;;;1.20;1.10;;;;;;;24.64;57.22;99744.72;5111640;28;20198;-69
2023/10/30 11:16:00;;;;;;;1.07;1.07;;;;;;;24.66;58.30;99742.78;5109747;28;20619;-69
2023/10/30 11:18:28;;;;;;;1.13;1.13;;;;;;;24.69;58.57;99737.28;5111027;28;20708;-69
2023/10/30 11:21:09;;;;;;;1.47;1.37;;;;;;;24.72;58.88;99733.59;5110321;28;20252;-76
2023/10/30 11:23:56;;;;;;;1.17;1.13;;;;;;;24.77;59.68;99727.00;5111527;28;20201;-69
2023/10/30 11:26:40;;;;;;;1.30;1.30;;;;;;;24.93;58.84;99732.66;5104173;28;20198;-69
2023/10/30 11:29:09;;;;;;;0.90;0.90;;;;;;;24.99;57.45;99713.78;5109201;27;20286;-71
2023/10/30 11:31:55;;;;;;;1.10;1.10;;;;;;;24.98;57.62;99712.09;5113669;27;20202;-69
2023/10/30 11:34:31;;;;;;;1.00;1.00;;;;;;;24.88;58.16;99705.97;5114883;28;20190;-79